College Park, South Carolina
Current Conditions -  °F | °C
As of 2:56 AM on Wednesday 26 Nov 2014 (Local Time) from KCHS Reporting Station
Moderate Rain Moderate Rain  
Wind Chill: 60°   Ceiling: 500
Heat Index: 60°   Visibility: 3mi
Dew Point: 59°   Wind: 9mph
Humidity: 96%   Direction: 330°NNW
Pressure: 29.78"   Gusts: NA
Location:  32.9859°N, 80.1166°W
Report Text: KCHS 260756Z 33008KT 3SM RA BR OVC005 16/15 A2978 RMK AO2 SLP083 P0010 T01560150
Loading
Personal Weather Stations






























Interactive Weather Map New forecast layout! Learn more

10-Day Weather Forecast

Advertisements
Track Severe Weather on mobile